Time;durP1;ratioP1;P1;durP2;ratioP2;P2;SDS_P1;SDS_P2;PMS_P1;PMS_P2;Temp;Humidity;BMP_temperature;BMP_pressure;BME280_temperature;BME280_humidity;BME280_pressure;Samples;Min_cycle;Max_cycle;Signal;HPM_P1;HPM_P2
2022/01/01 00:00:11;;;;;;;6.43;5.70;;;13.80;99.90;;;;;;5055311;28;20450;-72
2022/01/01 00:02:39;;;;;;;12.10;7.60;;;13.80;99.90;;;;;;5068475;28;20479;-73
2022/01/01 00:05:08;;;;;;;9.47;7.53;;;13.80;99.90;;;;;;5061997;28;20486;-73
2022/01/01 00:07:35;;;;;;;7.73;5.20;;;13.80;99.90;;;;;;5058325;28;20508;-73
2022/01/01 00:10:01;;;;;;;10.03;7.17;;;13.80;99.90;;;;;;5056171;28;20952;-71
2022/01/01 00:12:28;;;;;;;7.40;6.43;;;13.80;99.90;;;;;;5053755;28;20491;-72
2022/01/01 00:14:55;;;;;;;10.77;9.00;;;13.80;99.90;;;;;;5048692;28;20916;-71
2022/01/01 00:17:21;;;;;;;10.10;7.93;;;13.80;99.90;;;;;;5061598;28;20864;-72
2022/01/01 00:19:50;;;;;;;6.10;4.90;;;13.80;99.90;;;;;;5055897;28;20449;-71
2022/01/01 00:22:16;;;;;;;6.13;5.27;;;13.80;99.90;;;;;;5047383;28;20582;-72
2022/01/01 00:24:43;;;;;;;16.47;11.73;;;13.70;99.90;;;;;;5048074;28;20498;-72
2022/01/01 00:27:10;;;;;;;8.70;6.80;;;13.70;99.90;;;;;;5051327;28;20426;-72
2022/01/01 00:29:36;;;;;;;10.00;8.90;;;13.70;99.90;;;;;;5048501;28;20476;-73
2022/01/01 00:32:03;;;;;;;8.43;4.97;;;13.70;99.90;;;;;;5063491;28;20975;-72
2022/01/01 00:34:30;;;;;;;8.37;6.37;;;13.70;99.90;;;;;;5055796;28;20449;-72
2022/01/01 00:36:58;;;;;;;6.80;6.07;;;13.80;99.90;;;;;;5053587;28;20821;-72
2022/01/01 00:39:25;;;;;;;8.17;5.60;;;13.70;99.90;;;;;;5047568;28;20490;-72
2022/01/01 00:41:51;;;;;;;5.60;4.40;;;13.70;99.90;;;;;;5053229;28;20448;-72
2022/01/01 00:44:18;;;;;;;11.13;5.23;;;13.70;99.90;;;;;;5068019;28;20476;-72
2022/01/01 00:46:45;;;;;;;5.10;3.20;;;13.70;99.90;;;;;;5066562;28;20430;-72
2022/01/01 00:49:12;;;;;;;4.60;3.87;;;13.70;99.90;;;;;;5049192;28;20496;-72
2022/01/01 00:51:38;;;;;;;4.37;3.33;;;13.70;99.90;;;;;;5062803;28;20455;-72
2022/01/01 00:54:06;;;;;;;3.77;3.47;;;13.70;99.90;;;;;;5059321;28;20544;-72
2022/01/01 00:56:33;;;;;;;4.30;3.90;;;13.70;99.90;;;;;;5060998;28;20508;-72
2022/01/01 00:59:00;;;;;;;6.53;3.43;;;13.70;99.90;;;;;;5060831;28;20530;-72
2022/01/01 01:01:26;;;;;;;4.50;3.90;;;13.70;99.90;;;;;;5060300;28;20545;-72
2022/01/01 01:03:53;;;;;;;7.70;4.57;;;13.60;99.90;;;;;;5052255;28;20452;-73
2022/01/01 01:06:19;;;;;;;5.47;4.43;;;13.70;99.90;;;;;;5048068;28;20493;-71
2022/01/01 01:08:46;;;;;;;4.40;4.00;;;13.60;99.90;;;;;;5060649;28;20430;-72
2022/01/01 01:11:14;;;;;;;5.70;3.27;;;13.70;99.90;;;;;;5047884;28;20475;-73
2022/01/01 01:13:44;;;;;;;6.57;5.43;;;13.70;99.90;;;;;;5047297;28;20484;-72
2022/01/01 01:16:11;;;;;;;8.67;4.97;;;13.70;99.90;;;;;;5053107;28;20430;-72
2022/01/01 01:18:37;;;;;;;15.67;5.47;;;13.60;99.90;;;;;;5064561;28;20854;-71
2022/01/01 01:21:06;;;;;;;7.73;4.60;;;13.60;99.90;;;;;;5058147;28;20475;-71
2022/01/01 01:23:33;;;;;;;8.17;4.83;;;13.60;99.90;;;;;;5053526;28;20853;-71
2022/01/01 01:26:01;;;;;;;4.73;4.33;;;13.60;99.90;;;;;;5066727;28;20990;-72
2022/01/01 01:28:30;;;;;;;6.10;4.30;;;13.60;99.90;;;;;;5049336;28;20419;-73
2022/01/01 01:30:57;;;;;;;10.03;6.00;;;13.60;99.90;;;;;;5047038;28;20988;-72
2022/01/01 01:33:23;;;;;;;5.83;4.73;;;13.60;99.90;;;;;;5050474;28;20488;-73
2022/01/01 01:35:50;;;;;;;11.07;5.83;;;13.60;99.90;;;;;;5055858;28;20452;-73
2022/01/01 01:38:16;;;;;;;6.23;4.83;;;13.60;99.90;;;;;;5051148;28;20857;-73
2022/01/01 01:40:43;;;;;;;5.03;4.63;;;13.60;99.90;;;;;;5057449;28;20548;-72
2022/01/01 01:43:12;;;;;;;5.67;4.47;;;13.60;99.90;;;;;;5066219;28;20460;-72
2022/01/01 01:45:42;;;;;;;5.57;5.07;;;13.60;99.90;;;;;;5054638;28;20773;-71
2022/01/01 01:48:09;;;;;;;6.60;5.30;;;13.60;99.90;;;;;;5047443;28;20518;-72
2022/01/01 01:50:37;;;;;;;5.70;5.03;;;13.60;99.90;;;;;;5059923;28;21028;-72
2022/01/01 01:53:04;;;;;;;6.13;4.80;;;13.50;99.90;;;;;;5052152;28;20493;-72
2022/01/01 01:55:31;;;;;;;4.70;3.67;;;13.50;99.90;;;;;;5053987;28;20491;-72
2022/01/01 01:57:59;;;;;;;7.27;4.20;;;13.50;99.90;;;;;;5065920;28;20521;-72
2022/01/01 02:00:55;;;;;;;6.20;4.47;;;13.50;99.90;;;;;;5065192;28;20595;-72
2022/01/01 02:03:23;;;;;;;8.57;4.70;;;13.50;99.90;;;;;;5046792;28;20427;-71
2022/01/01 02:05:51;;;;;;;4.37;3.50;;;13.50;99.90;;;;;;5046709;28;20444;-71
2022/01/01 02:08:19;;;;;;;6.80;4.23;;;13.50;99.90;;;;;;5046704;28;20502;-71
2022/01/01 02:10:51;;;;;;;3.83;3.53;;;13.50;99.90;;;;;;5063655;28;20512;-71
2022/01/01 02:13:24;;;;;;;5.93;4.13;;;13.50;99.90;;;;;;5054376;28;20523;-71
2022/01/01 02:16:12;;;;;;;6.70;5.20;;;13.50;99.90;;;;;;5046278;28;20464;-71
2022/01/01 02:18:43;;;;;;;5.37;3.07;;;13.50;99.90;;;;;;5059171;28;20455;-71
2022/01/01 02:21:11;;;;;;;5.20;3.93;;;13.50;99.90;;;;;;5047998;28;20454;-72
2022/01/01 02:23:42;;;;;;;4.40;3.60;;;13.50;99.90;;;;;;5050805;28;20435;-71
2022/01/01 02:26:11;;;;;;;5.20;4.70;;;13.50;99.90;;;;;;5055516;28;20506;-72
2022/01/01 02:28:38;;;;;;;5.07;4.23;;;13.50;99.90;;;;;;5065289;28;20479;-72
2022/01/01 02:31:05;;;;;;;8.10;3.80;;;13.50;99.90;;;;;;5065786;28;20479;-71
2022/01/01 02:33:32;;;;;;;6.30;5.50;;;13.50;99.90;;;;;;5047722;28;20455;-74
2022/01/01 02:35:59;;;;;;;5.17;4.13;;;13.50;99.90;;;;;;5056397;28;20946;-73
2022/01/01 02:38:27;;;;;;;11.60;4.00;;;13.50;99.90;;;;;;5056397;28;21114;-72
2022/01/01 02:40:53;;;;;;;7.83;3.90;;;13.50;99.90;;;;;;5046780;28;20469;-72
2022/01/01 02:43:20;;;;;;;5.30;4.30;;;13.50;99.90;;;;;;5050882;28;20892;-73
2022/01/01 02:45:47;;;;;;;7.80;4.03;;;13.50;99.90;;;;;;5069079;28;20451;-71
2022/01/01 02:48:14;;;;;;;8.90;3.43;;;13.50;99.90;;;;;;5069831;28;20533;-72
2022/01/01 02:50:41;;;;;;;6.20;4.43;;;13.50;99.90;;;;;;5069609;28;20471;-73
2022/01/01 02:53:12;;;;;;;12.53;3.63;;;13.50;99.90;;;;;;5065697;28;20644;-72
2022/01/01 02:55:40;;;;;;;7.60;3.57;;;13.50;99.90;;;;;;5057695;28;20459;-72
2022/01/01 02:58:06;;;;;;;5.90;3.70;;;13.60;99.90;;;;;;5069252;28;20470;-72
2022/01/01 03:00:33;;;;;;;3.03;2.60;;;13.60;99.90;;;;;;5069248;28;20515;-72
2022/01/01 03:03:00;;;;;;;6.50;4.43;;;13.50;99.90;;;;;;5069141;28;20489;-72
2022/01/01 03:05:30;;;;;;;15.60;3.80;;;13.60;99.90;;;;;;5069218;28;20477;-72
2022/01/01 03:07:56;;;;;;;5.33;3.80;;;13.60;99.90;;;;;;5049730;28;20543;-72
2022/01/01 03:10:23;;;;;;;4.57;3.23;;;13.60;99.90;;;;;;5048704;28;20544;-72
2022/01/01 03:12:51;;;;;;;3.40;3.10;;;13.60;99.90;;;;;;5049481;28;20479;-71
2022/01/01 03:15:18;;;;;;;5.87;3.50;;;13.60;99.90;;;;;;5048565;28;20834;-71
2022/01/01 03:17:44;;;;;;;3.60;2.83;;;13.50;99.90;;;;;;5048573;28;20531;-73
2022/01/01 03:20:12;;;;;;;4.23;3.20;;;13.60;99.90;;;;;;5051838;28;20560;-72
2022/01/01 03:22:38;;;;;;;4.57;2.90;;;13.60;99.90;;;;;;5060284;28;20444;-70
2022/01/01 03:25:05;;;;;;;5.97;3.47;;;13.60;99.90;;;;;;5048922;28;20415;-71
2022/01/01 03:27:32;;;;;;;3.40;3.10;;;13.60;99.90;;;;;;5049401;28;20460;-72
2022/01/01 03:30:00;;;;;;;3.20;1.90;;;13.60;99.90;;;;;;5048641;28;20472;-72
2022/01/01 03:32:26;;;;;;;2.80;2.07;;;13.60;99.90;;;;;;5048875;28;20452;-73
2022/01/01 03:34:54;;;;;;;5.37;3.07;;;13.60;99.90;;;;;;5049194;28;20520;-72
2022/01/01 03:37:20;;;;;;;2.73;2.27;;;13.60;99.90;;;;;;5048628;28;20486;-72
2022/01/01 03:39:47;;;;;;;3.13;2.83;;;13.60;99.90;;;;;;5048492;28;20575;-73
2022/01/01 03:42:14;;;;;;;5.57;2.80;;;13.60;99.90;;;;;;5060093;28;20581;-72
2022/01/01 03:44:40;;;;;;;2.30;2.07;;;13.50;99.90;;;;;;5057035;28;20984;-73
2022/01/01 03:47:09;;;;;;;6.77;2.70;;;13.50;99.90;;;;;;5048190;28;20946;-73
2022/01/01 03:49:36;;;;;;;4.23;2.57;;;13.60;99.90;;;;;;5056301;28;20581;-72
2022/01/01 03:52:03;;;;;;;4.43;2.67;;;13.50;99.90;;;;;;5060334;28;20455;-72
2022/01/01 03:54:30;;;;;;;6.40;2.93;;;13.50;99.90;;;;;;5049794;28;20495;-71
2022/01/01 03:56:57;;;;;;;3.37;2.00;;;13.50;99.90;;;;;;5047680;28;20431;-71
2022/01/01 03:59:24;;;;;;;2.60;1.73;;;13.50;99.90;;;;;;5054613;28;20477;-72
2022/01/01 04:01:51;;;;;;;2.80;2.03;;;13.50;99.90;;;;;;5064734;28;20506;-71
2022/01/01 04:04:22;;;;;;;3.60;1.83;;;13.50;99.90;;;;;;5062653;28;20456;-71
2022/01/01 04:06:49;;;;;;;2.40;2.17;;;13.50;99.90;;;;;;5055771;28;20989;-71
2022/01/01 04:09:15;;;;;;;3.73;2.23;;;13.50;99.90;;;;;;5061879;28;20449;-71
2022/01/01 04:11:42;;;;;;;4.07;2.87;;;13.50;99.90;;;;;;5058895;28;20859;-71
2022/01/01 04:14:13;;;;;;;2.43;1.70;;;13.50;99.90;;;;;;5055156;28;20483;-72
2022/01/01 04:16:40;;;;;;;2.23;2.03;;;13.50;99.90;;;;;;5068416;28;20471;-71
2022/01/01 04:19:07;;;;;;;2.67;1.87;;;13.40;99.90;;;;;;5055366;28;20477;-71
2022/01/01 04:21:35;;;;;;;3.30;2.40;;;13.40;99.90;;;;;;5055266;28;20476;-73
2022/01/01 04:24:03;;;;;;;3.43;2.13;;;13.40;99.90;;;;;;5068745;28;20495;-71
2022/01/01 04:26:29;;;;;;;2.27;1.97;;;13.40;99.90;;;;;;5068266;28;20536;-71
2022/01/01 04:28:56;;;;;;;3.20;2.33;;;13.40;99.90;;;;;;5050925;28;20418;-71
2022/01/01 04:31:23;;;;;;;3.40;3.17;;;13.40;99.90;;;;;;5061530;28;20466;-72
2022/01/01 04:33:49;;;;;;;3.03;1.67;;;13.40;99.90;;;;;;5056323;28;20538;-73
2022/01/01 04:36:16;;;;;;;2.80;1.93;;;13.40;99.90;;;;;;5054414;28;20431;-72
2022/01/01 04:38:45;;;;;;;4.50;2.30;;;13.40;99.90;;;;;;5067871;28;20470;-72
2022/01/01 04:41:13;;;;;;;4.27;2.20;;;13.40;99.90;;;;;;5051660;28;20472;-71
2022/01/01 04:43:40;;;;;;;3.50;2.13;;;13.40;99.90;;;;;;5052916;28;20475;-71
2022/01/01 04:46:07;;;;;;;2.47;1.77;;;13.40;99.90;;;;;;5067096;28;20634;-72
2022/01/01 04:48:37;;;;;;;4.13;2.20;;;13.40;99.90;;;;;;5053606;28;21120;-73
2022/01/01 04:51:04;;;;;;;2.63;1.40;;;13.40;99.90;;;;;;5055280;28;20476;-72
2022/01/01 04:53:31;;;;;;;3.00;2.00;;;13.40;99.90;;;;;;5052673;28;20483;-72
2022/01/01 04:56:02;;;;;;;3.60;1.53;;;13.40;99.90;;;;;;5066888;28;20523;-73
2022/01/01 04:58:29;;;;;;;2.47;1.70;;;13.40;99.90;;;;;;5066928;28;20983;-73
2022/01/01 05:00:55;;;;;;;3.70;1.80;;;13.40;99.90;;;;;;5066609;28;20919;-70
2022/01/01 05:03:22;;;;;;;4.60;1.97;;;13.40;99.90;;;;;;5047199;28;20555;-72
2022/01/01 05:05:49;;;;;;;5.90;1.80;;;13.40;99.90;;;;;;5047181;28;20517;-72
2022/01/01 05:08:15;;;;;;;3.60;1.90;;;13.30;99.90;;;;;;5059545;28;20964;-72
2022/01/01 05:10:42;;;;;;;3.70;2.20;;;13.30;99.90;;;;;;5047017;28;20480;-72
2022/01/01 05:13:10;;;;;;;2.70;1.70;;;13.30;99.90;;;;;;5053984;28;20501;-73
2022/01/01 05:15:36;;;;;;;2.30;1.80;;;13.30;99.90;;;;;;5052669;28;20721;-72
2022/01/01 05:18:03;;;;;;;1.97;1.73;;;13.30;99.90;;;;;;5046569;28;20842;-73
2022/01/01 05:20:30;;;;;;;2.03;1.43;;;13.30;99.90;;;;;;5047498;28;20451;-72
2022/01/01 05:22:57;;;;;;;2.07;1.07;;;13.30;99.90;;;;;;5059093;28;20514;-71
2022/01/01 05:25:23;;;;;;;4.00;1.37;;;13.30;99.90;;;;;;5056114;28;20456;-71
2022/01/01 05:27:50;;;;;;;4.60;1.70;;;13.40;99.90;;;;;;5046813;28;20460;-71
2022/01/01 05:30:18;;;;;;;1.23;1.10;;;13.30;99.90;;;;;;5060029;28;20450;-71
2022/01/01 05:32:44;;;;;;;1.80;1.27;;;13.30;99.90;;;;;;5054342;28;20560;-71
2022/01/01 05:35:11;;;;;;;3.43;1.57;;;13.30;99.90;;;;;;5066603;28;21021;-70
2022/01/01 05:37:38;;;;;;;1.43;1.00;;;13.30;99.90;;;;;;5066617;28;20470;-73
2022/01/01 05:40:06;;;;;;;2.67;1.60;;;13.30;99.90;;;;;;5052707;28;20439;-71
2022/01/01 05:42:32;;;;;;;1.23;1.13;;;13.30;99.90;;;;;;5066408;28;20425;-71
2022/01/01 05:44:59;;;;;;;4.53;1.63;;;13.30;99.90;;;;;;5060278;28;20438;-71
2022/01/01 05:47:27;;;;;;;1.53;1.43;;;13.30;99.90;;;;;;5046402;28;21015;-73
2022/01/01 05:49:54;;;;;;;1.93;1.33;;;13.20;99.90;;;;;;5050210;28;20449;-71
2022/01/01 05:52:21;;;;;;;1.73;0.93;;;13.20;99.90;;;;;;5063055;28;20517;-72
2022/01/01 05:54:48;;;;;;;3.37;1.33;;;13.30;99.90;;;;;;5063310;28;20545;-71
2022/01/01 05:57:14;;;;;;;2.40;1.50;;;13.30;99.90;;;;;;5066238;28;20928;-71
2022/01/01 05:59:42;;;;;;;4.27;2.40;;;13.30;99.90;;;;;;5052104;28;20536;-71
2022/01/01 06:02:09;;;;;;;1.37;1.27;;;13.30;99.90;;;;;;5065984;28;20495;-71
2022/01/01 06:04:37;;;;;;;4.70;1.60;;;13.30;99.90;;;;;;5047577;28;20443;-71
2022/01/01 06:07:04;;;;;;;3.23;1.60;;;13.30;99.90;;;;;;5049315;28;20937;-72
2022/01/01 06:09:31;;;;;;;2.40;1.60;;;13.30;99.90;;;;;;5060714;28;20477;-71
2022/01/01 06:11:57;;;;;;;2.90;1.50;;;13.30;99.90;;;;;;5045891;28;20510;-71
2022/01/01 06:14:24;;;;;;;1.40;1.30;;;13.30;99.90;;;;;;5050379;28;20466;-71
2022/01/01 06:16:51;;;;;;;3.03;1.30;;;13.30;99.90;;;;;;5045343;28;20453;-71
2022/01/01 06:19:18;;;;;;;5.13;2.00;;;13.30;99.90;;;;;;5045156;28;20966;-72
2022/01/01 06:21:46;;;;;;;2.63;1.63;;;13.30;99.90;;;;;;5046307;28;20514;-71
2022/01/01 06:24:12;;;;;;;2.93;1.20;;;13.30;99.90;;;;;;5046233;28;20431;-71
2022/01/01 06:26:39;;;;;;;2.80;1.53;;;13.30;99.90;;;;;;5046560;28;20427;-71
2022/01/01 06:29:06;;;;;;;3.60;1.30;;;13.30;99.90;;;;;;5045906;28;20456;-72
2022/01/01 06:31:32;;;;;;;4.90;1.60;;;13.30;99.90;;;;;;5057318;28;20475;-71
2022/01/01 06:33:59;;;;;;;1.53;1.27;;;13.30;99.90;;;;;;5047310;28;20922;-70
2022/01/01 06:36:26;;;;;;;1.77;1.27;;;13.30;99.90;;;;;;5046019;28;20442;-71
2022/01/01 06:38:54;;;;;;;1.50;1.30;;;13.30;99.90;;;;;;5045322;28;20487;-73
2022/01/01 06:41:20;;;;;;;2.57;1.53;;;13.30;99.90;;;;;;5045830;28;20542;-71
2022/01/01 06:43:47;;;;;;;3.60;0.93;;;13.30;99.90;;;;;;5049582;28;20452;-72
2022/01/01 06:46:14;;;;;;;1.40;1.00;;;13.30;99.90;;;;;;5052188;28;20484;-71
2022/01/01 06:48:40;;;;;;;1.17;0.80;;;13.40;99.90;;;;;;5059446;28;20447;-71
2022/01/01 06:51:07;;;;;;;2.40;1.10;;;13.40;99.90;;;;;;5051890;28;20598;-71
2022/01/01 06:53:34;;;;;;;2.67;1.00;;;13.30;99.90;;;;;;5045329;28;21122;-71
2022/01/01 06:56:06;;;;;;;1.97;1.10;;;13.40;99.90;;;;;;5045747;28;20998;-71
2022/01/01 06:58:33;;;;;;;2.50;1.50;;;13.30;99.90;;;;;;5045461;28;20427;-71
2022/01/01 07:01:00;;;;;;;3.67;1.20;;;13.40;99.90;;;;;;5058625;28;20483;-71
2022/01/01 07:03:26;;;;;;;1.90;0.87;;;13.40;99.90;;;;;;5057774;28;20456;-73
2022/01/01 07:05:53;;;;;;;2.50;1.33;;;13.40;99.90;;;;;;5045899;28;20451;-71
2022/01/01 07:08:20;;;;;;;1.23;0.87;;;13.40;99.90;;;;;;5054128;28;20504;-71
2022/01/01 07:10:46;;;;;;;3.30;1.30;;;13.40;99.90;;;;;;5063726;28;20533;-72
2022/01/01 07:13:15;;;;;;;1.57;1.33;;;13.40;99.90;;;;;;5054326;28;20503;-73
2022/01/01 07:15:42;;;;;;;3.70;1.20;;;13.40;99.90;;;;;;5063233;28;20487;-72
2022/01/01 07:18:09;;;;;;;2.43;1.37;;;13.40;99.90;;;;;;5065203;28;20998;-72
2022/01/01 07:20:36;;;;;;;1.93;1.00;;;13.40;99.90;;;;;;5063079;28;20575;-72
2022/01/01 07:23:03;;;;;;;1.27;0.70;;;13.40;99.90;;;;;;5055811;28;20434;-73
2022/01/01 07:25:30;;;;;;;2.80;1.20;;;13.40;99.90;;;;;;5075539;28;20509;-72
2022/01/01 07:27:57;;;;;;;1.53;0.80;;;13.40;99.90;;;;;;5057240;28;21010;-73
2022/01/01 07:30:25;;;;;;;2.07;0.80;;;13.40;99.90;;;;;;5047031;28;20447;-72
2022/01/01 07:32:52;;;;;;;1.73;0.93;;;13.40;99.90;;;;;;5059608;28;20522;-71
2022/01/01 07:35:21;;;;;;;1.60;1.50;;;13.40;99.90;;;;;;5049105;28;20494;-71
2022/01/01 07:37:48;;;;;;;3.33;1.47;;;13.40;99.90;;;;;;5050174;28;20993;-71
2022/01/01 07:40:17;;;;;;;3.47;1.30;;;13.30;99.90;;;;;;5051455;28;20506;-72
2022/01/01 07:42:44;;;;;;;3.37;1.17;;;13.30;99.90;;;;;;5060134;28;20444;-71
2022/01/01 07:45:12;;;;;;;1.30;1.20;;;13.30;99.90;;;;;;5050404;28;20444;-71
2022/01/01 07:47:40;;;;;;;1.60;1.03;;;13.30;99.90;;;;;;5047978;28;20456;-71
2022/01/01 07:50:08;;;;;;;5.00;1.97;;;13.40;99.90;;;;;;5060650;28;20502;-71
2022/01/01 07:52:35;;;;;;;1.53;1.03;;;13.40;99.90;;;;;;5063796;28;20437;-71
2022/01/01 07:55:02;;;;;;;2.30;0.93;;;13.40;99.90;;;;;;5049281;28;20492;-71
2022/01/01 07:57:29;;;;;;;1.30;1.10;;;13.40;99.90;;;;;;5048887;28;20431;-71
2022/01/01 07:59:56;;;;;;;2.27;1.03;;;13.40;99.90;;;;;;5047988;28;20454;-71
2022/01/01 08:02:23;;;;;;;1.13;0.97;;;13.40;99.90;;;;;;5062900;28;20539;-72
2022/01/01 08:04:51;;;;;;;1.90;0.90;;;13.40;99.90;;;;;;5049687;28;20451;-72
2022/01/01 08:07:17;;;;;;;2.10;0.97;;;13.40;99.90;;;;;;5055243;28;20946;-71
2022/01/01 08:09:44;;;;;;;3.00;1.10;;;13.50;99.90;;;;;;5047873;28;20501;-73
2022/01/01 08:12:11;;;;;;;2.63;1.37;;;13.50;99.90;;;;;;5060860;28;20434;-73
2022/01/01 08:14:38;;;;;;;1.40;1.13;;;13.50;99.90;;;;;;5060475;28;20485;-72
2022/01/01 08:17:06;;;;;;;4.33;1.50;;;13.60;99.90;;;;;;5047987;28;20443;-72
2022/01/01 08:19:33;;;;;;;2.60;1.37;;;13.60;99.90;;;;;;5047696;28;20555;-73
2022/01/01 08:22:02;;;;;;;7.23;1.00;;;13.60;99.90;;;;;;5050536;28;20442;-72
2022/01/01 08:24:29;;;;;;;1.73;1.17;;;13.70;99.90;;;;;;5047979;28;20564;-72
2022/01/01 08:26:56;;;;;;;1.20;1.10;;;13.70;99.90;;;;;;5057718;28;20902;-72
2022/01/01 08:29:23;;;;;;;1.53;1.40;;;13.70;99.90;;;;;;5067552;28;20976;-72
2022/01/01 08:31:51;;;;;;;1.53;1.37;;;13.70;99.90;;;;;;5058225;28;20449;-73
2022/01/01 08:34:19;;;;;;;1.73;1.10;;;13.70;99.90;;;;;;5047455;28;20491;-72
2022/01/01 08:36:46;;;;;;;2.00;1.10;;;13.80;99.90;;;;;;5057534;28;20576;-72
2022/01/01 08:39:15;;;;;;;1.60;1.50;;;13.90;99.90;;;;;;5050256;28;20574;-72
2022/01/01 08:41:43;;;;;;;1.60;1.10;;;13.90;99.90;;;;;;5050223;28;20508;-73
2022/01/01 08:44:09;;;;;;;1.10;1.00;;;13.90;99.90;;;;;;5050991;28;20456;-72
2022/01/01 08:46:36;;;;;;;2.43;0.80;;;13.90;99.90;;;;;;5055256;28;20452;-72
2022/01/01 08:49:05;;;;;;;2.50;1.10;;;14.00;99.90;;;;;;5059907;28;20467;-72
2022/01/01 08:51:34;;;;;;;1.90;0.83;;;14.00;99.90;;;;;;5060391;28;20556;-72
2022/01/01 08:54:01;;;;;;;3.40;1.17;;;14.00;99.90;;;;;;5054958;28;20956;-72
2022/01/01 08:56:29;;;;;;;1.07;0.97;;;14.00;99.90;;;;;;5056469;28;20467;-72
2022/01/01 08:58:56;;;;;;;0.80;0.80;;;14.00;99.90;;;;;;5046760;28;20448;-72
2022/01/01 09:01:22;;;;;;;1.90;0.97;;;14.00;99.90;;;;;;5047729;28;20575;-72
2022/01/01 09:03:49;;;;;;;5.60;1.60;;;14.10;99.90;;;;;;5060927;28;20471;-73
2022/01/01 09:06:16;;;;;;;1.00;0.90;;;14.20;99.90;;;;;;5058971;28;20944;-73
2022/01/01 09:08:44;;;;;;;1.73;0.93;;;14.20;99.90;;;;;;5052853;28;20455;-73
2022/01/01 09:11:12;;;;;;;1.60;1.23;;;14.20;99.90;;;;;;5054972;28;20520;-71
2022/01/01 09:13:43;;;;;;;2.23;1.20;;;14.20;99.90;;;;;;5053135;28;20890;-71
2022/01/01 09:16:11;;;;;;;9.93;1.90;;;14.20;99.90;;;;;;5067150;28;20469;-73
2022/01/01 09:18:38;;;;;;;2.53;1.30;;;14.10;99.90;;;;;;5066267;28;20984;-72
2022/01/01 09:21:05;;;;;;;2.53;1.10;;;14.10;99.90;;;;;;5065697;28;20950;-72
2022/01/01 09:23:31;;;;;;;1.57;1.23;;;14.00;99.90;;;;;;5046886;28;20427;-71
2022/01/01 09:26:00;;;;;;;1.30;1.20;;;14.10;99.90;;;;;;5046830;28;20426;-71
2022/01/01 09:28:27;;;;;;;1.27;1.17;;;14.20;99.90;;;;;;5057916;28;20450;-72
2022/01/01 09:30:55;;;;;;;1.60;1.25;;;14.20;99.90;;;;;;5046649;28;20426;-71
2022/01/01 09:33:22;;;;;;;0.97;0.87;;;14.30;99.90;;;;;;5046284;28;20239;-71
2022/01/01 09:35:48;;;;;;;1.30;1.00;;;14.40;99.90;;;;;;5046557;28;20459;-71
2022/01/01 09:38:15;;;;;;;2.23;1.00;;;14.50;99.90;;;;;;5050285;28;20475;-72
2022/01/01 09:40:42;;;;;;;1.23;1.07;;;14.50;99.90;;;;;;5058537;28;20454;-71
2022/01/01 09:43:12;;;;;;;1.90;1.20;;;14.50;99.90;;;;;;5060652;28;20565;-71
2022/01/01 09:45:40;;;;;;;1.43;1.00;;;14.50;99.90;;;;;;5056783;28;20513;-71
2022/01/01 09:48:09;;;;;;;5.73;1.33;;;14.50;99.90;;;;;;5055449;28;20431;-71
2022/01/01 09:50:36;;;;;;;1.60;1.23;;;14.60;99.90;;;;;;5049353;28;20479;-71
2022/01/01 09:53:03;;;;;;;3.20;1.13;;;14.70;99.90;;;;;;5046085;28;20890;-71
2022/01/01 09:55:29;;;;;;;1.80;1.10;;;14.70;99.90;;;;;;5045464;28;20546;-71
2022/01/01 09:57:57;;;;;;;2.00;1.40;;;14.60;99.90;;;;;;5050857;28;20527;-72
2022/01/01 10:00:23;;;;;;;2.00;1.10;;;14.60;99.90;;;;;;5048954;28;20475;-72
2022/01/01 10:02:50;;;;;;;1.50;1.30;;;14.60;99.90;;;;;;5055204;28;20548;-72
2022/01/01 10:05:18;;;;;;;1.43;0.97;;;14.60;99.90;;;;;;5059616;28;21154;-72
2022/01/01 10:07:45;;;;;;;1.97;1.17;;;14.60;99.90;;;;;;5045669;28;20457;-72
2022/01/01 10:10:19;;;;;;;1.50;1.40;;;14.70;99.90;;;;;;5045265;28;20472;-72
2022/01/01 10:12:46;;;;;;;3.13;1.43;;;14.80;99.90;;;;;;5047154;28;20509;-73
2022/01/01 10:15:13;;;;;;;5.00;1.07;;;14.90;99.90;;;;;;5065496;28;21059;-73
2022/01/01 10:17:40;;;;;;;1.73;0.97;;;15.00;99.90;;;;;;5053081;28;20506;-73
2022/01/01 10:20:08;;;;;;;0.87;0.87;;;15.10;99.90;;;;;;5063689;28;20464;-72
2022/01/01 10:22:37;;;;;;;1.63;1.07;;;15.10;99.90;;;;;;5061867;28;20464;-73
2022/01/01 10:27:57;;;;;;;2.10;0.80;;;15.20;99.90;;;;;;5053213;28;20428;-73
2022/01/01 10:30:35;;;;;;;2.10;1.90;;;15.40;99.90;;;;;;5046726;28;20464;-72
2022/01/01 10:33:08;;;;;;;6.33;1.43;;;15.50;99.90;;;;;;5065258;28;20463;-72
2022/01/01 10:35:37;;;;;;;0.90;0.90;;;15.50;99.90;;;;;;5061152;28;20595;-72
2022/01/01 10:38:07;;;;;;;0.73;0.70;;;15.50;99.90;;;;;;5054901;28;20452;-73
2022/01/01 10:40:34;;;;;;;1.83;1.20;;;15.40;99.90;;;;;;5064186;28;20500;-73
2022/01/01 10:43:00;;;;;;;1.93;0.97;;;15.40;99.90;;;;;;5053656;28;20960;-72
2022/01/01 10:45:35;;;;;;;3.63;1.40;;;15.40;99.90;;;;;;5050357;28;20459;-72
2022/01/01 10:48:22;;;;;;;2.27;1.17;;;15.40;99.90;;;;;;5055484;28;20799;-72
2022/01/01 10:50:50;;;;;;;1.20;0.80;;;15.40;99.90;;;;;;5045796;28;20474;-73
2022/01/01 10:53:22;;;;;;;2.30;0.93;;;15.40;99.90;;;;;;5045275;28;20435;-73
2022/01/01 10:55:52;;;;;;;2.30;1.50;;;15.40;99.90;;;;;;5045637;28;20574;-73
2022/01/01 10:58:20;;;;;;;4.00;1.17;;;15.40;99.90;;;;;;5048895;28;20427;-73
2022/01/01 11:00:48;;;;;;;1.10;0.97;;;15.40;99.90;;;;;;5053484;28;20450;-73
2022/01/01 11:03:17;;;;;;;1.50;1.30;;;15.30;99.90;;;;;;5049870;28;20510;-73
2022/01/01 11:05:44;;;;;;;4.23;1.07;;;15.40;99.90;;;;;;5055608;28;20978;-73
2022/01/01 11:08:12;;;;;;;2.53;1.90;;;15.50;99.90;;;;;;5053607;28;20462;-73
2022/01/01 11:10:42;;;;;;;1.17;0.87;;;15.60;99.90;;;;;;5058106;28;20448;-73
2022/01/01 11:13:10;;;;;;;1.57;1.20;;;15.70;99.90;;;;;;5068518;28;20805;-73
2022/01/01 11:15:36;;;;;;;1.67;1.23;;;15.70;99.90;;;;;;5069281;28;20425;-73
2022/01/01 11:18:03;;;;;;;0.97;0.87;;;15.70;99.90;;;;;;5053164;28;20488;-73
2022/01/01 11:20:33;;;;;;;1.50;1.30;;;15.70;99.90;;;;;;5058671;28;20519;-73
2022/01/01 11:23:04;;;;;;;1.87;1.23;;;15.70;99.90;;;;;;5049090;28;20519;-75
2022/01/01 11:25:32;;;;;;;1.13;1.03;;;15.70;99.90;;;;;;5049266;28;20458;-73
2022/01/01 11:28:00;;;;;;;2.27;1.00;;;15.60;99.90;;;;;;5061611;28;20435;-73
2022/01/01 11:30:29;;;;;;;3.63;1.20;;;15.50;99.90;;;;;;5052385;28;21186;-73
2022/01/01 11:33:02;;;;;;;2.20;1.00;;;15.60;99.90;;;;;;5049628;28;20525;-73
2022/01/01 11:35:31;;;;;;;2.90;1.30;;;15.70;99.90;;;;;;5061785;28;20512;-73
2022/01/01 11:38:01;;;;;;;4.00;1.33;;;15.80;99.90;;;;;;5048582;28;20821;-73
2022/01/01 11:40:33;;;;;;;1.30;1.20;;;15.90;99.90;;;;;;5048160;28;21098;-73
2022/01/01 11:43:01;;;;;;;2.43;1.53;;;16.10;99.90;;;;;;5056292;28;20460;-73
2022/01/01 11:45:44;;;;;;;2.20;1.43;;;16.30;99.90;;;;;;5065709;28;20487;-73
2022/01/01 11:48:31;;;;;;;0.90;0.80;;;16.40;99.90;;;;;;5060613;28;20473;-73
2022/01/01 11:51:18;;;;;;;2.73;1.10;;;16.40;99.90;;;;;;5066456;28;20442;-73
2022/01/01 11:54:21;;;;;;;1.63;1.30;;;16.50;99.90;;;;;;5068390;28;21054;-73
2022/01/01 11:57:02;;;;;;;1.00;0.90;;;16.70;99.90;;;;;;5068140;28;20460;-71
2022/01/01 11:59:31;;;;;;;0.80;0.80;;;16.80;99.90;;;;;;5055905;28;20999;-73
2022/01/01 12:01:59;;;;;;;2.20;1.30;;;16.80;99.90;;;;;;5065885;28;20430;-73
2022/01/01 12:04:32;;;;;;;1.13;1.10;;;16.70;99.90;;;;;;5056264;28;20483;-73
2022/01/01 12:07:00;;;;;;;1.40;0.93;;;16.80;99.90;;;;;;5065531;28;20824;-74
2022/01/01 12:09:27;;;;;;;1.83;1.20;;;16.70;99.90;;;;;;5048090;28;20535;-74
2022/01/01 12:11:56;;;;;;;4.37;1.40;;;16.60;99.90;;;;;;5065603;28;20529;-74
2022/01/01 12:14:28;;;;;;;1.10;0.87;;;16.70;99.90;;;;;;5070000;28;20467;-73
2022/01/01 12:16:57;;;;;;;1.77;1.13;;;16.80;99.90;;;;;;5067991;28;21032;-73
2022/01/01 12:19:25;;;;;;;2.30;1.00;;;16.90;99.90;;;;;;5068463;28;21229;-73
2022/01/01 12:22:05;;;;;;;1.00;0.90;;;16.90;99.90;;;;;;5067662;28;20451;-74
2022/01/01 12:24:35;;;;;;;2.10;1.30;;;17.00;99.90;;;;;;5054931;28;20515;-72
2022/01/01 12:27:10;;;;;;;1.67;1.00;;;17.10;99.90;;;;;;5048565;28;20776;-74
2022/01/01 12:29:36;;;;;;;4.63;1.30;;;17.00;99.90;;;;;;5047869;28;20472;-72
2022/01/01 12:32:07;;;;;;;1.50;1.17;;;17.10;99.90;;;;;;5047980;28;20974;-72
2022/01/01 12:34:36;;;;;;;3.57;1.10;;;17.20;99.90;;;;;;5063736;28;21107;-72
2022/01/01 12:37:06;;;;;;;2.00;1.43;;;17.30;99.90;;;;;;5067764;28;21140;-72
2022/01/01 12:40:02;;;;;;;1.20;0.97;;;17.40;99.90;;;;;;5050584;28;20526;-74
2022/01/01 12:42:31;;;;;;;0.90;0.83;;;17.30;99.90;;;;;;5061675;28;20451;-73
2022/01/01 12:44:59;;;;;;;1.80;0.90;;;17.50;99.90;;;;;;5060726;28;20438;-74
2022/01/01 12:47:29;;;;;;;1.20;0.90;;;17.60;99.90;;;;;;5060642;28;20480;-73
2022/01/01 12:49:58;;;;;;;1.73;1.30;;;17.70;99.90;;;;;;5052063;28;20471;-72
2022/01/01 12:52:26;;;;;;;1.60;1.13;;;17.70;99.90;;;;;;5060904;28;20952;-73